sensor_id;sensor_type;location;lat;lon;timestamp;P1;durP1;ratioP1;P2;durP2;ratioP2
74059;SDS011;62414;53.436;8.828;2023-08-24T00:01:47;5.82;;;2.60;;
74059;SDS011;62414;53.436;8.828;2023-08-24T00:04:12;5.40;;;2.50;;
74059;SDS011;62414;53.436;8.828;2023-08-24T00:06:38;6.10;;;2.60;;
74059;SDS011;62414;53.436;8.828;2023-08-24T00:09:03;5.40;;;2.55;;
74059;SDS011;62414;53.436;8.828;2023-08-24T00:11:28;8.10;;;2.93;;
74059;SDS011;62414;53.436;8.828;2023-08-24T00:13:54;7.00;;;2.70;;
74059;SDS011;62414;53.436;8.828;2023-08-24T00:16:21;6.55;;;3.00;;
74059;SDS011;62414;53.436;8.828;2023-08-24T00:18:46;6.43;;;2.90;;
74059;SDS011;62414;53.436;8.828;2023-08-24T00:21:12;7.93;;;3.03;;
74059;SDS011;62414;53.436;8.828;2023-08-24T00:23:38;6.13;;;3.20;;
74059;SDS011;62414;53.436;8.828;2023-08-24T00:26:03;6.77;;;3.17;;
74059;SDS011;62414;53.436;8.828;2023-08-24T00:28:29;7.57;;;3.07;;
74059;SDS011;62414;53.436;8.828;2023-08-24T00:30:54;6.82;;;3.47;;
74059;SDS011;62414;53.436;8.828;2023-08-24T00:33:21;7.20;;;3.40;;
74059;SDS011;62414;53.436;8.828;2023-08-24T00:35:47;8.15;;;3.67;;
74059;SDS011;62414;53.436;8.828;2023-08-24T00:38:12;8.60;;;3.90;;
74059;SDS011;62414;53.436;8.828;2023-08-24T00:40:37;7.47;;;3.40;;
74059;SDS011;62414;53.436;8.828;2023-08-24T00:43:03;7.40;;;3.60;;
74059;SDS011;62414;53.436;8.828;2023-08-24T00:45:28;5.87;;;3.43;;
74059;SDS011;62414;53.436;8.828;2023-08-24T00:47:55;7.00;;;3.30;;
74059;SDS011;62414;53.436;8.828;2023-08-24T00:50:22;6.67;;;3.40;;
74059;SDS011;62414;53.436;8.828;2023-08-24T00:52:48;7.03;;;3.40;;
74059;SDS011;62414;53.436;8.828;2023-08-24T00:55:14;8.63;;;3.75;;
74059;SDS011;62414;53.436;8.828;2023-08-24T00:57:40;9.57;;;3.90;;
74059;SDS011;62414;53.436;8.828;2023-08-24T01:00:05;7.05;;;4.00;;
74059;SDS011;62414;53.436;8.828;2023-08-24T01:02:31;6.97;;;3.60;;
74059;SDS011;62414;53.436;8.828;2023-08-24T01:04:57;6.17;;;3.47;;
74059;SDS011;62414;53.436;8.828;2023-08-24T01:07:24;6.88;;;3.42;;
74059;SDS011;62414;53.436;8.828;2023-08-24T01:09:50;8.80;;;3.60;;
74059;SDS011;62414;53.436;8.828;2023-08-24T01:12:19;6.53;;;3.08;;
74059;SDS011;62414;53.436;8.828;2023-08-24T01:14:53;8.05;;;3.50;;
74059;SDS011;62414;53.436;8.828;2023-08-24T01:17:23;7.35;;;3.40;;
74059;SDS011;62414;53.436;8.828;2023-08-24T01:19:50;7.53;;;2.87;;
74059;SDS011;62414;53.436;8.828;2023-08-24T01:22:20;5.57;;;3.00;;
74059;SDS011;62414;53.436;8.828;2023-08-24T01:24:55;8.25;;;3.35;;
74059;SDS011;62414;53.436;8.828;2023-08-24T01:27:27;5.90;;;2.95;;
74059;SDS011;62414;53.436;8.828;2023-08-24T01:29:53;5.03;;;3.00;;
74059;SDS011;62414;53.436;8.828;2023-08-24T01:32:18;6.57;;;3.20;;
74059;SDS011;62414;53.436;8.828;2023-08-24T01:34:44;6.80;;;3.03;;
74059;SDS011;62414;53.436;8.828;2023-08-24T01:37:10;4.97;;;2.65;;
74059;SDS011;62414;53.436;8.828;2023-08-24T01:39:38;7.43;;;2.90;;
74059;SDS011;62414;53.436;8.828;2023-08-24T01:42:07;6.50;;;2.90;;
74059;SDS011;62414;53.436;8.828;2023-08-24T01:44:37;6.65;;;2.83;;
74059;SDS011;62414;53.436;8.828;2023-08-24T01:47:05;7.53;;;2.78;;
74059;SDS011;62414;53.436;8.828;2023-08-24T01:49:31;5.97;;;2.80;;
74059;SDS011;62414;53.436;8.828;2023-08-24T01:51:57;6.97;;;2.80;;
74059;SDS011;62414;53.436;8.828;2023-08-24T01:54:23;9.05;;;3.20;;
74059;SDS011;62414;53.436;8.828;2023-08-24T01:56:48;6.30;;;2.60;;
74059;SDS011;62414;53.436;8.828;2023-08-24T01:59:14;4.97;;;2.50;;
74059;SDS011;62414;53.436;8.828;2023-08-24T02:01:41;5.40;;;2.37;;
74059;SDS011;62414;53.436;8.828;2023-08-24T02:04:06;4.78;;;2.60;;
74059;SDS011;62414;53.436;8.828;2023-08-24T02:06:31;8.30;;;2.70;;
74059;SDS011;62414;53.436;8.828;2023-08-24T02:08:57;5.67;;;2.27;;
74059;SDS011;62414;53.436;8.828;2023-08-24T02:11:22;5.43;;;2.45;;
74059;SDS011;62414;53.436;8.828;2023-08-24T02:13:48;5.13;;;2.07;;
74059;SDS011;62414;53.436;8.828;2023-08-24T02:16:13;4.77;;;2.30;;
74059;SDS011;62414;53.436;8.828;2023-08-24T02:18:40;5.43;;;2.33;;
74059;SDS011;62414;53.436;8.828;2023-08-24T02:21:09;5.13;;;2.13;;
74059;SDS011;62414;53.436;8.828;2023-08-24T02:23:35;5.03;;;2.20;;
74059;SDS011;62414;53.436;8.828;2023-08-24T02:26:00;4.77;;;2.23;;
74059;SDS011;62414;53.436;8.828;2023-08-24T02:28:26;4.78;;;2.20;;
74059;SDS011;62414;53.436;8.828;2023-08-24T02:30:51;5.43;;;2.30;;
74059;SDS011;62414;53.436;8.828;2023-08-24T02:33:17;6.57;;;2.60;;
74059;SDS011;62414;53.436;8.828;2023-08-24T02:35:44;5.00;;;2.08;;
74059;SDS011;62414;53.436;8.828;2023-08-24T02:38:12;4.80;;;2.00;;
74059;SDS011;62414;53.436;8.828;2023-08-24T02:40:37;5.25;;;2.22;;
74059;SDS011;62414;53.436;8.828;2023-08-24T02:43:03;4.80;;;2.30;;
74059;SDS011;62414;53.436;8.828;2023-08-24T02:45:29;6.17;;;2.27;;
74059;SDS011;62414;53.436;8.828;2023-08-24T02:47:54;4.40;;;2.33;;
74059;SDS011;62414;53.436;8.828;2023-08-24T02:50:20;4.65;;;2.20;;
74059;SDS011;62414;53.436;8.828;2023-08-24T02:52:46;5.33;;;2.00;;
74059;SDS011;62414;53.436;8.828;2023-08-24T02:55:12;4.43;;;2.00;;
74059;SDS011;62414;53.436;8.828;2023-08-24T02:57:37;4.70;;;2.10;;
74059;SDS011;62414;53.436;8.828;2023-08-24T03:00:03;5.18;;;1.90;;
74059;SDS011;62414;53.436;8.828;2023-08-24T03:02:31;3.93;;;1.90;;
74059;SDS011;62414;53.436;8.828;2023-08-24T03:04:56;5.22;;;1.92;;
74059;SDS011;62414;53.436;8.828;2023-08-24T03:07:22;5.33;;;2.20;;
74059;SDS011;62414;53.436;8.828;2023-08-24T03:09:49;4.27;;;2.10;;
74059;SDS011;62414;53.436;8.828;2023-08-24T03:12:14;4.20;;;2.10;;
74059;SDS011;62414;53.436;8.828;2023-08-24T03:14:40;5.33;;;2.20;;
74059;SDS011;62414;53.436;8.828;2023-08-24T03:17:07;4.83;;;2.30;;
74059;SDS011;62414;53.436;8.828;2023-08-24T03:19:32;4.80;;;2.42;;
74059;SDS011;62414;53.436;8.828;2023-08-24T03:21:58;5.90;;;2.20;;
74059;SDS011;62414;53.436;8.828;2023-08-24T03:24:23;4.78;;;2.50;;
74059;SDS011;62414;53.436;8.828;2023-08-24T03:26:50;4.33;;;2.20;;
74059;SDS011;62414;53.436;8.828;2023-08-24T03:29:16;4.85;;;2.30;;
74059;SDS011;62414;53.436;8.828;2023-08-24T03:31:41;5.47;;;2.50;;
74059;SDS011;62414;53.436;8.828;2023-08-24T03:34:07;5.05;;;2.60;;
74059;SDS011;62414;53.436;8.828;2023-08-24T03:36:33;6.03;;;2.70;;
74059;SDS011;62414;53.436;8.828;2023-08-24T03:38:58;5.63;;;2.73;;
74059;SDS011;62414;53.436;8.828;2023-08-24T03:41:23;5.43;;;2.70;;
74059;SDS011;62414;53.436;8.828;2023-08-24T03:43:50;4.53;;;2.30;;
74059;SDS011;62414;53.436;8.828;2023-08-24T03:46:16;4.97;;;2.60;;
74059;SDS011;62414;53.436;8.828;2023-08-24T03:48:42;4.30;;;2.30;;
74059;SDS011;62414;53.436;8.828;2023-08-24T03:51:08;5.05;;;2.58;;
74059;SDS011;62414;53.436;8.828;2023-08-24T03:53:35;5.38;;;2.53;;
74059;SDS011;62414;53.436;8.828;2023-08-24T03:56:01;5.73;;;2.50;;
74059;SDS011;62414;53.436;8.828;2023-08-24T03:58:26;4.70;;;2.50;;
74059;SDS011;62414;53.436;8.828;2023-08-24T04:00:53;5.28;;;2.50;;
74059;SDS011;62414;53.436;8.828;2023-08-24T04:03:18;7.60;;;2.97;;
74059;SDS011;62414;53.436;8.828;2023-08-24T04:05:44;7.30;;;3.10;;
74059;SDS011;62414;53.436;8.828;2023-08-24T04:08:09;7.63;;;2.83;;
74059;SDS011;62414;53.436;8.828;2023-08-24T04:10:36;5.20;;;2.60;;
74059;SDS011;62414;53.436;8.828;2023-08-24T04:13:02;6.65;;;2.90;;
74059;SDS011;62414;53.436;8.828;2023-08-24T04:15:28;6.00;;;2.70;;
74059;SDS011;62414;53.436;8.828;2023-08-24T04:17:54;5.53;;;2.72;;
74059;SDS011;62414;53.436;8.828;2023-08-24T04:20:20;5.97;;;2.60;;
74059;SDS011;62414;53.436;8.828;2023-08-24T04:22:45;6.05;;;2.70;;
74059;SDS011;62414;53.436;8.828;2023-08-24T04:25:11;6.53;;;2.80;;
74059;SDS011;62414;53.436;8.828;2023-08-24T04:27:36;6.40;;;2.87;;
74059;SDS011;62414;53.436;8.828;2023-08-24T04:30:02;6.63;;;2.95;;
74059;SDS011;62414;53.436;8.828;2023-08-24T04:32:28;4.97;;;2.60;;
74059;SDS011;62414;53.436;8.828;2023-08-24T04:34:55;5.57;;;2.57;;
74059;SDS011;62414;53.436;8.828;2023-08-24T04:37:20;4.63;;;2.35;;
74059;SDS011;62414;53.436;8.828;2023-08-24T04:39:46;5.47;;;2.53;;
74059;SDS011;62414;53.436;8.828;2023-08-24T04:42:11;4.93;;;2.60;;
74059;SDS011;62414;53.436;8.828;2023-08-24T04:44:37;5.45;;;2.75;;
74059;SDS011;62414;53.436;8.828;2023-08-24T04:47:02;6.03;;;2.50;;
74059;SDS011;62414;53.436;8.828;2023-08-24T04:49:29;4.20;;;2.17;;
74059;SDS011;62414;53.436;8.828;2023-08-24T04:51:56;5.32;;;2.35;;
74059;SDS011;62414;53.436;8.828;2023-08-24T04:54:22;4.47;;;2.30;;
74059;SDS011;62414;53.436;8.828;2023-08-24T04:56:47;5.80;;;2.40;;
74059;SDS011;62414;53.436;8.828;2023-08-24T04:59:12;4.47;;;2.13;;
74059;SDS011;62414;53.436;8.828;2023-08-24T05:01:38;5.35;;;2.38;;
74059;SDS011;62414;53.436;8.828;2023-08-24T05:04:03;6.33;;;2.47;;
74059;SDS011;62414;53.436;8.828;2023-08-24T05:06:29;6.03;;;2.83;;
74059;SDS011;62414;53.436;8.828;2023-08-24T05:08:56;6.32;;;2.80;;
74059;SDS011;62414;53.436;8.828;2023-08-24T05:11:22;6.57;;;2.80;;
74059;SDS011;62414;53.436;8.828;2023-08-24T05:13:48;6.82;;;3.40;;
74059;SDS011;62414;53.436;8.828;2023-08-24T05:16:13;6.20;;;3.40;;
74059;SDS011;62414;53.436;8.828;2023-08-24T05:18:39;7.53;;;3.60;;
74059;SDS011;62414;53.436;8.828;2023-08-24T05:21:05;5.90;;;3.33;;
74059;SDS011;62414;53.436;8.828;2023-08-24T05:23:30;6.78;;;3.47;;
74059;SDS011;62414;53.436;8.828;2023-08-24T05:25:57;7.72;;;3.55;;
74059;SDS011;62414;53.436;8.828;2023-08-24T05:28:23;10.10;;;5.20;;
74059;SDS011;62414;53.436;8.828;2023-08-24T05:30:48;10.07;;;3.80;;
74059;SDS011;62414;53.436;8.828;2023-08-24T05:33:14;10.03;;;4.70;;
74059;SDS011;62414;53.436;8.828;2023-08-24T05:35:39;9.37;;;4.80;;
74059;SDS011;62414;53.436;8.828;2023-08-24T05:38:04;10.30;;;5.30;;
74059;SDS011;62414;53.436;8.828;2023-08-24T05:40:30;11.70;;;6.40;;
74059;SDS011;62414;53.436;8.828;2023-08-24T05:42:57;12.47;;;6.63;;
74059;SDS011;62414;53.436;8.828;2023-08-24T05:45:22;15.00;;;7.43;;
74059;SDS011;62414;53.436;8.828;2023-08-24T05:47:47;12.20;;;6.97;;
74059;SDS011;62414;53.436;8.828;2023-08-24T05:50:13;14.53;;;7.13;;
74059;SDS011;62414;53.436;8.828;2023-08-24T05:52:38;14.05;;;6.60;;
74059;SDS011;62414;53.436;8.828;2023-08-24T05:55:04;10.43;;;6.03;;
74059;SDS011;62414;53.436;8.828;2023-08-24T05:57:30;12.68;;;6.38;;
74059;SDS011;62414;53.436;8.828;2023-08-24T05:59:57;11.97;;;6.20;;
74059;SDS011;62414;53.436;8.828;2023-08-24T06:02:22;11.95;;;5.63;;
74059;SDS011;62414;53.436;8.828;2023-08-24T06:04:47;11.40;;;5.17;;
74059;SDS011;62414;53.436;8.828;2023-08-24T06:07:13;9.57;;;4.97;;
74059;SDS011;62414;53.436;8.828;2023-08-24T06:09:38;13.57;;;5.73;;
74059;SDS011;62414;53.436;8.828;2023-08-24T06:12:04;10.23;;;5.37;;
74059;SDS011;62414;53.436;8.828;2023-08-24T06:14:30;10.95;;;5.57;;
74059;SDS011;62414;53.436;8.828;2023-08-24T06:16:57;11.10;;;5.73;;
74059;SDS011;62414;53.436;8.828;2023-08-24T06:19:23;9.48;;;5.53;;
74059;SDS011;62414;53.436;8.828;2023-08-24T06:21:48;8.20;;;4.50;;
74059;SDS011;62414;53.436;8.828;2023-08-24T06:24:13;8.30;;;5.17;;
74059;SDS011;62414;53.436;8.828;2023-08-24T06:26:39;12.53;;;5.93;;
74059;SDS011;62414;53.436;8.828;2023-08-24T06:29:04;10.50;;;5.10;;
74059;SDS011;62414;53.436;8.828;2023-08-24T06:31:30;9.07;;;5.47;;
74059;SDS011;62414;53.436;8.828;2023-08-24T06:33:56;10.10;;;5.30;;
74059;SDS011;62414;53.436;8.828;2023-08-24T06:36:22;12.45;;;5.80;;
74059;SDS011;62414;53.436;8.828;2023-08-24T06:38:47;12.90;;;5.50;;
74059;SDS011;62414;53.436;8.828;2023-08-24T06:41:13;10.10;;;5.80;;
74059;SDS011;62414;53.436;8.828;2023-08-24T06:43:38;11.33;;;5.73;;
74059;SDS011;62414;53.436;8.828;2023-08-24T06:46:04;13.07;;;5.60;;
74059;SDS011;62414;53.436;8.828;2023-08-24T06:48:29;11.00;;;6.05;;
74059;SDS011;62414;53.436;8.828;2023-08-24T06:50:56;12.97;;;5.90;;
74059;SDS011;62414;53.436;8.828;2023-08-24T06:53:22;11.80;;;5.90;;
74059;SDS011;62414;53.436;8.828;2023-08-24T06:55:53;10.73;;;5.93;;
74059;SDS011;62414;53.436;8.828;2023-08-24T06:58:19;14.18;;;5.75;;
74059;SDS011;62414;53.436;8.828;2023-08-24T07:00:44;12.70;;;5.50;;
74059;SDS011;62414;53.436;8.828;2023-08-24T07:03:10;9.23;;;5.40;;
74059;SDS011;62414;53.436;8.828;2023-08-24T07:05:35;10.03;;;4.80;;
74059;SDS011;62414;53.436;8.828;2023-08-24T07:08:02;8.47;;;4.57;;
74059;SDS011;62414;53.436;8.828;2023-08-24T07:10:28;10.68;;;4.15;;
74059;SDS011;62414;53.436;8.828;2023-08-24T07:12:53;8.17;;;4.37;;
74059;SDS011;62414;53.436;8.828;2023-08-24T07:15:19;9.83;;;4.00;;
74059;SDS011;62414;53.436;8.828;2023-08-24T07:17:44;9.18;;;4.28;;
74059;SDS011;62414;53.436;8.828;2023-08-24T07:20:10;7.37;;;3.60;;
74059;SDS011;62414;53.436;8.828;2023-08-24T07:22:35;8.40;;;3.70;;
74059;SDS011;62414;53.436;8.828;2023-08-24T07:25:03;7.37;;;3.00;;
74059;SDS011;62414;53.436;8.828;2023-08-24T07:27:30;6.28;;;2.50;;
74059;SDS011;62414;53.436;8.828;2023-08-24T07:29:55;6.07;;;2.43;;
74059;SDS011;62414;53.436;8.828;2023-08-24T07:32:21;4.80;;;2.50;;
74059;SDS011;62414;53.436;8.828;2023-08-24T07:34:46;6.43;;;2.60;;
74059;SDS011;62414;53.436;8.828;2023-08-24T07:37:12;6.90;;;2.67;;
74059;SDS011;62414;53.436;8.828;2023-08-24T07:39:38;10.50;;;3.17;;
74059;SDS011;62414;53.436;8.828;2023-08-24T07:42:05;6.67;;;2.90;;
74059;SDS011;62414;53.436;8.828;2023-08-24T07:44:30;6.82;;;3.00;;
74059;SDS011;62414;53.436;8.828;2023-08-24T07:46:56;6.90;;;3.00;;
74059;SDS011;62414;53.436;8.828;2023-08-24T07:49:21;8.15;;;2.80;;
74059;SDS011;62414;53.436;8.828;2023-08-24T07:51:47;7.07;;;2.60;;
74059;SDS011;62414;53.436;8.828;2023-08-24T07:54:12;9.17;;;2.80;;
74059;SDS011;62414;53.436;8.828;2023-08-24T07:56:38;6.68;;;2.80;;
74059;SDS011;62414;53.436;8.828;2023-08-24T07:59:04;8.77;;;3.70;;
74059;SDS011;62414;53.436;8.828;2023-08-24T08:01:30;8.68;;;3.42;;
74059;SDS011;62414;53.436;8.828;2023-08-24T08:03:55;7.10;;;3.50;;
74059;SDS011;62414;53.436;8.828;2023-08-24T08:06:21;6.13;;;2.80;;
74059;SDS011;62414;53.436;8.828;2023-08-24T08:08:46;7.32;;;2.75;;
74059;SDS011;62414;53.436;8.828;2023-08-24T08:11:12;8.10;;;2.90;;
74059;SDS011;62414;53.436;8.828;2023-08-24T08:13:37;6.67;;;3.10;;
74059;SDS011;62414;53.436;8.828;2023-08-24T08:16:04;5.80;;;2.80;;
74059;SDS011;62414;53.436;8.828;2023-08-24T08:18:31;8.03;;;3.10;;
74059;SDS011;62414;53.436;8.828;2023-08-24T08:20:56;6.53;;;2.67;;
74059;SDS011;62414;53.436;8.828;2023-08-24T08:23:22;4.20;;;2.10;;
74059;SDS011;62414;53.436;8.828;2023-08-24T08:25:47;5.23;;;2.00;;
74059;SDS011;62414;53.436;8.828;2023-08-24T08:28:12;5.53;;;1.90;;
74059;SDS011;62414;53.436;8.828;2023-08-24T08:30:38;7.07;;;1.83;;
74059;SDS011;62414;53.436;8.828;2023-08-24T08:33:05;6.47;;;2.27;;
74059;SDS011;62414;53.436;8.828;2023-08-24T08:35:30;5.90;;;2.10;;
74059;SDS011;62414;53.436;8.828;2023-08-24T08:37:56;6.20;;;2.47;;
74059;SDS011;62414;53.436;8.828;2023-08-24T08:40:21;5.30;;;2.37;;
74059;SDS011;62414;53.436;8.828;2023-08-24T08:42:46;4.95;;;2.10;;
74059;SDS011;62414;53.436;8.828;2023-08-24T08:45:12;6.30;;;2.60;;
74059;SDS011;62414;53.436;8.828;2023-08-24T08:47:38;8.67;;;2.40;;
74059;SDS011;62414;53.436;8.828;2023-08-24T08:50:05;7.60;;;2.50;;
74059;SDS011;62414;53.436;8.828;2023-08-24T08:52:31;5.47;;;2.67;;
74059;SDS011;62414;53.436;8.828;2023-08-24T08:54:56;5.57;;;2.00;;
74059;SDS011;62414;53.436;8.828;2023-08-24T08:57:22;6.30;;;2.25;;
74059;SDS011;62414;53.436;8.828;2023-08-24T08:59:48;5.53;;;2.10;;
74059;SDS011;62414;53.436;8.828;2023-08-24T09:02:14;5.50;;;2.10;;
74059;SDS011;62414;53.436;8.828;2023-08-24T09:04:41;5.22;;;1.80;;
74059;SDS011;62414;53.436;8.828;2023-08-24T09:07:10;5.85;;;1.80;;
74059;SDS011;62414;53.436;8.828;2023-08-24T09:09:35;5.55;;;1.73;;
74059;SDS011;62414;53.436;8.828;2023-08-24T09:12:01;4.97;;;1.70;;
74059;SDS011;62414;53.436;8.828;2023-08-24T09:14:28;4.88;;;1.67;;
74059;SDS011;62414;53.436;8.828;2023-08-24T09:16:53;6.20;;;1.90;;
74059;SDS011;62414;53.436;8.828;2023-08-24T09:19:19;7.18;;;2.00;;
74059;SDS011;62414;53.436;8.828;2023-08-24T09:21:44;5.63;;;1.80;;
74059;SDS011;62414;53.436;8.828;2023-08-24T09:24:11;7.30;;;1.90;;
74059;SDS011;62414;53.436;8.828;2023-08-24T09:26:37;4.70;;;1.60;;
74059;SDS011;62414;53.436;8.828;2023-08-24T09:29:10;6.00;;;1.70;;
74059;SDS011;62414;53.436;8.828;2023-08-24T09:31:36;4.78;;;1.67;;
74059;SDS011;62414;53.436;8.828;2023-08-24T09:34:02;4.40;;;1.50;;
74059;SDS011;62414;53.436;8.828;2023-08-24T09:36:28;4.47;;;1.60;;
74059;SDS011;62414;53.436;8.828;2023-08-24T09:38:56;6.88;;;1.67;;
74059;SDS011;62414;53.436;8.828;2023-08-24T09:41:22;5.30;;;1.80;;
74059;SDS011;62414;53.436;8.828;2023-08-24T09:43:48;3.60;;;1.80;;
74059;SDS011;62414;53.436;8.828;2023-08-24T09:46:14;8.05;;;1.95;;
74059;SDS011;62414;53.436;8.828;2023-08-24T09:48:43;4.03;;;1.80;;
74059;SDS011;62414;53.436;8.828;2023-08-24T09:51:08;6.25;;;2.00;;
74059;SDS011;62414;53.436;8.828;2023-08-24T09:53:36;4.43;;;1.90;;
74059;SDS011;62414;53.436;8.828;2023-08-24T09:56:02;6.40;;;1.90;;
74059;SDS011;62414;53.436;8.828;2023-08-24T09:58:29;7.85;;;2.28;;
74059;SDS011;62414;53.436;8.828;2023-08-24T10:00:55;6.18;;;2.40;;
74059;SDS011;62414;53.436;8.828;2023-08-24T10:03:21;6.93;;;2.40;;
74059;SDS011;62414;53.436;8.828;2023-08-24T10:05:50;6.05;;;2.20;;
74059;SDS011;62414;53.436;8.828;2023-08-24T10:08:16;5.18;;;1.80;;
74059;SDS011;62414;53.436;8.828;2023-08-24T10:10:43;5.63;;;1.80;;
74059;SDS011;62414;53.436;8.828;2023-08-24T10:13:11;7.07;;;2.50;;
74059;SDS011;62414;53.436;8.828;2023-08-24T10:15:43;5.15;;;2.17;;
74059;SDS011;62414;53.436;8.828;2023-08-24T10:18:08;7.30;;;2.60;;
74059;SDS011;62414;53.436;8.828;2023-08-24T10:20:35;5.07;;;2.20;;
74059;SDS011;62414;53.436;8.828;2023-08-24T10:23:00;5.67;;;2.07;;
74059;SDS011;62414;53.436;8.828;2023-08-24T10:25:26;6.85;;;1.92;;
74059;SDS011;62414;53.436;8.828;2023-08-24T10:27:51;6.00;;;2.20;;
74059;SDS011;62414;53.436;8.828;2023-08-24T10:30:18;6.88;;;2.10;;
74059;SDS011;62414;53.436;8.828;2023-08-24T10:32:46;5.70;;;2.28;;
74059;SDS011;62414;53.436;8.828;2023-08-24T10:35:11;5.57;;;2.28;;
74059;SDS011;62414;53.436;8.828;2023-08-24T10:37:37;8.17;;;2.73;;
74059;SDS011;62414;53.436;8.828;2023-08-24T10:40:03;5.23;;;2.40;;
74059;SDS011;62414;53.436;8.828;2023-08-24T10:42:42;4.97;;;2.00;;
74059;SDS011;62414;53.436;8.828;2023-08-24T10:45:08;5.28;;;1.80;;
74059;SDS011;62414;53.436;8.828;2023-08-24T10:47:34;7.95;;;2.40;;
74059;SDS011;62414;53.436;8.828;2023-08-24T10:50:10;8.10;;;2.30;;
74059;SDS011;62414;53.436;8.828;2023-08-24T10:52:36;4.85;;;2.30;;
74059;SDS011;62414;53.436;8.828;2023-08-24T10:55:01;5.60;;;2.38;;
74059;SDS011;62414;53.436;8.828;2023-08-24T10:57:34;7.45;;;2.20;;
74059;SDS011;62414;53.436;8.828;2023-08-24T11:00:04;7.93;;;2.50;;
74059;SDS011;62414;53.436;8.828;2023-08-24T11:02:40;5.13;;;2.30;;
74059;SDS011;62414;53.436;8.828;2023-08-24T11:05:06;6.57;;;2.30;;
74059;SDS011;62414;53.436;8.828;2023-08-24T11:07:33;6.13;;;2.00;;
74059;SDS011;62414;53.436;8.828;2023-08-24T11:09:59;6.47;;;1.90;;
74059;SDS011;62414;53.436;8.828;2023-08-24T11:12:24;6.00;;;2.60;;
74059;SDS011;62414;53.436;8.828;2023-08-24T11:14:50;6.03;;;2.40;;
74059;SDS011;62414;53.436;8.828;2023-08-24T11:17:20;7.60;;;2.60;;
74059;SDS011;62414;53.436;8.828;2023-08-24T11:19:49;6.47;;;2.50;;
74059;SDS011;62414;53.436;8.828;2023-08-24T11:22:15;5.05;;;2.72;;
74059;SDS011;62414;53.436;8.828;2023-08-24T11:24:42;5.30;;;2.00;;
74059;SDS011;62414;53.436;8.828;2023-08-24T11:27:08;5.53;;;2.42;;
74059;SDS011;62414;53.436;8.828;2023-08-24T11:29:34;5.03;;;2.30;;
74059;SDS011;62414;53.436;8.828;2023-08-24T11:31:59;5.80;;;2.30;;
74059;SDS011;62414;53.436;8.828;2023-08-24T11:34:25;5.03;;;1.90;;
74059;SDS011;62414;53.436;8.828;2023-08-24T11:36:50;6.70;;;2.50;;
74059;SDS011;62414;53.436;8.828;2023-08-24T11:39:16;5.80;;;2.50;;
74059;SDS011;62414;53.436;8.828;2023-08-24T11:41:43;6.53;;;2.30;;
74059;SDS011;62414;53.436;8.828;2023-08-24T11:44:09;7.50;;;2.10;;
74059;SDS011;62414;53.436;8.828;2023-08-24T11:46:34;4.72;;;2.20;;
74059;SDS011;62414;53.436;8.828;2023-08-24T11:49:04;5.35;;;2.50;;
74059;SDS011;62414;53.436;8.828;2023-08-24T11:51:29;5.23;;;2.10;;
74059;SDS011;62414;53.436;8.828;2023-08-24T11:53:55;4.53;;;2.20;;
74059;SDS011;62414;53.436;8.828;2023-08-24T11:56:21;4.70;;;2.50;;
74059;SDS011;62414;53.436;8.828;2023-08-24T11:58:49;6.80;;;2.20;;
74059;SDS011;62414;53.436;8.828;2023-08-24T12:01:14;7.03;;;2.47;;
74059;SDS011;62414;53.436;8.828;2023-08-24T12:03:40;6.63;;;2.20;;
74059;SDS011;62414;53.436;8.828;2023-08-24T12:06:10;5.17;;;2.20;;
74059;SDS011;62414;53.436;8.828;2023-08-24T12:08:37;5.43;;;2.10;;
74059;SDS011;62414;53.436;8.828;2023-08-24T12:11:02;6.70;;;2.70;;
74059;SDS011;62414;53.436;8.828;2023-08-24T12:13:32;5.90;;;2.40;;
74059;SDS011;62414;53.436;8.828;2023-08-24T12:15:59;6.18;;;1.90;;
74059;SDS011;62414;53.436;8.828;2023-08-24T12:18:24;5.10;;;2.45;;
74059;SDS011;62414;53.436;8.828;2023-08-24T12:20:50;6.67;;;3.17;;
74059;SDS011;62414;53.436;8.828;2023-08-24T12:23:15;4.83;;;2.30;;
74059;SDS011;62414;53.436;8.828;2023-08-24T12:25:42;5.93;;;2.70;;
74059;SDS011;62414;53.436;8.828;2023-08-24T12:28:09;5.20;;;3.13;;
74059;SDS011;62414;53.436;8.828;2023-08-24T12:30:45;6.70;;;2.70;;
74059;SDS011;62414;53.436;8.828;2023-08-24T12:33:21;5.22;;;2.80;;
74059;SDS011;62414;53.436;8.828;2023-08-24T12:35:48;5.00;;;2.70;;
74059;SDS011;62414;53.436;8.828;2023-08-24T12:38:13;5.93;;;3.20;;
74059;SDS011;62414;53.436;8.828;2023-08-24T12:40:39;6.87;;;2.80;;
74059;SDS011;62414;53.436;8.828;2023-08-24T12:43:04;5.83;;;2.70;;
74059;SDS011;62414;53.436;8.828;2023-08-24T12:45:30;7.93;;;2.90;;
74059;SDS011;62414;53.436;8.828;2023-08-24T12:47:56;7.07;;;3.10;;
74059;SDS011;62414;53.436;8.828;2023-08-24T12:50:23;7.20;;;2.70;;
74059;SDS011;62414;53.436;8.828;2023-08-24T12:52:48;5.82;;;3.00;;
74059;SDS011;62414;53.436;8.828;2023-08-24T12:55:13;9.13;;;2.73;;
74059;SDS011;62414;53.436;8.828;2023-08-24T12:57:40;7.32;;;3.00;;
74059;SDS011;62414;53.436;8.828;2023-08-24T13:00:06;5.00;;;2.57;;
74059;SDS011;62414;53.436;8.828;2023-08-24T13:02:32;6.95;;;3.10;;
74059;SDS011;62414;53.436;8.828;2023-08-24T13:04:58;6.07;;;2.90;;
74059;SDS011;62414;53.436;8.828;2023-08-24T13:07:24;5.50;;;2.80;;
74059;SDS011;62414;53.436;8.828;2023-08-24T13:09:50;7.20;;;2.65;;
74059;SDS011;62414;53.436;8.828;2023-08-24T13:12:15;6.13;;;3.30;;
74059;SDS011;62414;53.436;8.828;2023-08-24T13:14:41;5.13;;;2.80;;
74059;SDS011;62414;53.436;8.828;2023-08-24T13:17:06;9.33;;;2.90;;
74059;SDS011;62414;53.436;8.828;2023-08-24T13:19:32;6.93;;;2.77;;
74059;SDS011;62414;53.436;8.828;2023-08-24T13:21:57;8.30;;;3.20;;
74059;SDS011;62414;53.436;8.828;2023-08-24T13:24:24;6.20;;;3.17;;
74059;SDS011;62414;53.436;8.828;2023-08-24T13:26:49;6.80;;;3.40;;
74059;SDS011;62414;53.436;8.828;2023-08-24T13:29:15;11.00;;;3.90;;
74059;SDS011;62414;53.436;8.828;2023-08-24T13:31:40;6.57;;;3.00;;
74059;SDS011;62414;53.436;8.828;2023-08-24T13:34:05;7.57;;;3.50;;
74059;SDS011;62414;53.436;8.828;2023-08-24T13:36:31;6.63;;;3.00;;
74059;SDS011;62414;53.436;8.828;2023-08-24T13:38:56;8.10;;;3.22;;
74059;SDS011;62414;53.436;8.828;2023-08-24T13:41:23;8.63;;;3.40;;
74059;SDS011;62414;53.436;8.828;2023-08-24T13:43:48;9.88;;;3.40;;
74059;SDS011;62414;53.436;8.828;2023-08-24T13:46:14;6.70;;;3.37;;
74059;SDS011;62414;53.436;8.828;2023-08-24T13:48:39;7.87;;;3.30;;
74059;SDS011;62414;53.436;8.828;2023-08-24T13:51:05;6.93;;;3.20;;
74059;SDS011;62414;53.436;8.828;2023-08-24T13:53:30;6.40;;;3.27;;
74059;SDS011;62414;53.436;8.828;2023-08-24T13:55:56;7.63;;;3.13;;
74059;SDS011;62414;53.436;8.828;2023-08-24T13:58:22;8.10;;;3.20;;
74059;SDS011;62414;53.436;8.828;2023-08-24T14:00:54;7.30;;;3.05;;
74059;SDS011;62414;53.436;8.828;2023-08-24T14:03:20;7.25;;;3.65;;
74059;SDS011;62414;53.436;8.828;2023-08-24T14:05:45;8.43;;;3.33;;
74059;SDS011;62414;53.436;8.828;2023-08-24T14:08:10;7.30;;;3.47;;
74059;SDS011;62414;53.436;8.828;2023-08-24T14:10:36;5.78;;;3.17;;
74059;SDS011;62414;53.436;8.828;2023-08-24T14:13:01;6.63;;;3.60;;
74059;SDS011;62414;53.436;8.828;2023-08-24T14:15:28;6.60;;;3.10;;
74059;SDS011;62414;53.436;8.828;2023-08-24T14:17:54;6.75;;;3.60;;
74059;SDS011;62414;53.436;8.828;2023-08-24T14:20:19;6.43;;;3.30;;
74059;SDS011;62414;53.436;8.828;2023-08-24T14:22:44;6.17;;;3.00;;
74059;SDS011;62414;53.436;8.828;2023-08-24T14:25:10;5.13;;;3.30;;
74059;SDS011;62414;53.436;8.828;2023-08-24T14:27:35;8.17;;;3.23;;
74059;SDS011;62414;53.436;8.828;2023-08-24T14:30:01;6.38;;;3.58;;
74059;SDS011;62414;53.436;8.828;2023-08-24T14:32:27;6.47;;;3.40;;
74059;SDS011;62414;53.436;8.828;2023-08-24T14:34:53;5.82;;;3.45;;
74059;SDS011;62414;53.436;8.828;2023-08-24T14:37:18;5.83;;;3.03;;
74059;SDS011;62414;53.436;8.828;2023-08-24T14:39:44;8.53;;;3.10;;